createdAt,value
2019-05-29T00:00:56.520Z,11.76
2019-05-29T00:03:27.557Z,11.63
2019-05-29T00:05:58.504Z,11.56
2019-05-29T00:08:29.352Z,11.56
2019-05-29T00:11:00.312Z,11.56
2019-05-29T00:13:31.212Z,11.46
2019-05-29T00:16:01.998Z,11.44
2019-05-29T00:18:32.771Z,11.44
2019-05-29T00:21:03.613Z,11.42
2019-05-29T00:23:35.104Z,11.18
2019-05-29T00:26:06.363Z,11.38
2019-05-29T00:28:36.921Z,11.23
2019-05-29T00:31:07.838Z,11.28
2019-05-29T00:33:41.395Z,11.20
2019-05-29T00:36:12.464Z,11.26
2019-05-29T00:38:43.259Z,11.29
2019-05-29T00:41:15.064Z,11.30
2019-05-29T00:43:46.208Z,11.20
2019-05-29T00:46:17.623Z,11.30
2019-05-29T00:48:48.242Z,11.24
2019-05-29T00:51:19.046Z,11.22
2019-05-29T00:53:49.854Z,11.14
2019-05-29T00:56:20.847Z,11.12
2019-05-29T00:58:51.842Z,11.15
2019-05-29T01:01:23.472Z,11.16
2019-05-29T01:03:54.290Z,11.10
2019-05-29T01:06:25.227Z,10.94
2019-05-29T01:08:55.713Z,10.98
2019-05-29T01:11:26.247Z,10.86
2019-05-29T01:13:57.024Z,10.80
2019-05-29T01:16:28.051Z,10.88
2019-05-29T01:19:20.350Z,10.76
2019-05-29T01:21:51.237Z,10.72
2019-05-29T01:24:22.702Z,10.78
2019-05-29T01:26:53.772Z,10.81
2019-05-29T01:29:24.667Z,10.71
2019-05-29T01:31:55.484Z,10.60
2019-05-29T01:34:26.450Z,10.54
2019-05-29T01:36:57.294Z,10.56
2019-05-29T01:39:28.191Z,10.62
2019-05-29T01:41:59.090Z,10.53
2019-05-29T01:44:30.302Z,10.70
2019-05-29T01:47:01.416Z,10.50
2019-05-29T01:49:32.587Z,10.43
2019-05-29T01:52:03.083Z,10.44
2019-05-29T01:54:33.850Z,10.53
2019-05-29T01:57:05.406Z,10.42
2019-05-29T01:59:36.290Z,10.43
2019-05-29T02:02:07.081Z,10.47
2019-05-29T02:04:37.824Z,10.44
2019-05-29T02:07:13.253Z,10.48
2019-05-29T02:09:44.077Z,10.45
2019-05-29T02:12:16.189Z,10.48
2019-05-29T02:14:47.083Z,10.52
2019-05-29T02:17:17.921Z,10.36
2019-05-29T02:19:48.397Z,10.33
2019-05-29T02:22:18.963Z,10.39
2019-05-29T02:24:49.738Z,10.48
2019-05-29T02:27:21.433Z,10.44
2019-05-29T02:29:52.461Z,10.42
2019-05-29T02:32:23.571Z,10.38
2019-05-29T02:34:54.589Z,10.40
2019-05-29T02:37:26.197Z,10.49
2019-05-29T02:39:57.106Z,10.27
2019-05-29T02:42:29.308Z,10.54
2019-05-29T02:45:00.237Z,10.31
2019-05-29T02:47:31.051Z,10.10
2019-05-29T02:50:01.888Z,10.27
2019-05-29T02:52:32.736Z,10.31
2019-05-29T02:55:04.611Z,10.19
2019-05-29T02:57:35.432Z,10.23
2019-05-29T03:00:09.455Z,10.16
2019-05-29T03:02:40.314Z,10.16
2019-05-29T03:05:11.132Z,10.30
2019-05-29T03:07:42.017Z,10.07
2019-05-29T03:10:13.677Z,10.25
2019-05-29T03:12:44.822Z,10.16
2019-05-29T03:15:15.872Z,10.17
2019-05-29T03:17:46.732Z,10.23
2019-05-29T03:20:17.816Z,10.27
2019-05-29T03:22:48.708Z,10.29
2019-05-29T03:25:19.556Z,10.04
2019-05-29T03:27:50.499Z,10.12
2019-05-29T03:30:21.390Z,10.26
2019-05-29T03:32:52.419Z,10.33
2019-05-29T03:35:23.551Z,10.16
2019-05-29T03:37:58.034Z,10.16
2019-05-29T03:40:27.133Z,10.16
2019-05-29T03:42:58.647Z,10.33
2019-05-29T03:45:31.333Z,10.23
2019-05-29T03:48:02.290Z,10.10
2019-05-29T03:50:34.758Z,10.08
2019-05-29T03:53:05.878Z,10.18
2019-05-29T03:55:37.867Z,10.28
2019-05-29T03:58:08.935Z,10.43
2019-05-29T04:00:45.935Z,10.20
2019-05-29T04:03:12.244Z,10.29
2019-05-29T04:05:43.082Z,10.08
2019-05-29T04:08:13.896Z,10.09
2019-05-29T04:10:44.390Z,10.18
2019-05-29T04:13:15.395Z,10.20
2019-05-29T04:15:47.268Z,10.12
2019-05-29T04:18:20.431Z,10.26
2019-05-29T04:20:52.826Z,10.08
2019-05-29T04:23:25.280Z,10.06
2019-05-29T04:25:57.864Z,10.12
2019-05-29T04:28:30.336Z,10.16
2019-05-29T04:31:02.727Z,10.13
2019-05-29T04:33:35.042Z,10.20
2019-05-29T04:36:06.252Z,10.48
2019-05-29T04:38:38.493Z,10.27
2019-05-29T04:41:09.227Z,10.18
2019-05-29T04:43:40.115Z,10.12
2019-05-29T04:46:10.611Z,10.22
2019-05-29T04:48:41.534Z,10.49
2019-05-29T04:51:12.364Z,10.24
2019-05-29T04:53:43.199Z,10.26
2019-05-29T04:56:14.126Z,10.07
2019-05-29T04:58:44.998Z,10.17
2019-05-29T05:01:15.948Z,10.28
2019-05-29T05:03:48.516Z,10.47
2019-05-29T05:06:19.635Z,10.37
2019-05-29T05:08:51.049Z,10.45
2019-05-29T05:11:22.273Z,10.46
2019-05-29T05:13:53.473Z,10.50
2019-05-29T05:16:24.476Z,10.46
2019-05-29T05:18:55.283Z,10.49
2019-05-29T05:21:26.222Z,10.43
2019-05-29T05:23:56.780Z,10.50
2019-05-29T05:26:27.706Z,10.56
2019-05-29T05:28:58.522Z,10.70
2019-05-29T05:31:30.323Z,10.58
2019-05-29T05:34:01.423Z,10.78
2019-05-29T05:36:32.682Z,10.88
2019-05-29T05:39:04.326Z,10.95
2019-05-29T05:41:35.198Z,10.98
2019-05-29T05:44:06.004Z,10.97
2019-05-29T05:46:37.157Z,10.97
2019-05-29T05:49:08.118Z,11.21
2019-05-29T05:51:42.688Z,11.32
2019-05-29T05:54:11.294Z,11.36
2019-05-29T05:56:42.111Z,11.53
2019-05-29T05:59:12.988Z,11.36
2019-05-29T06:01:43.901Z,11.28
2019-05-29T06:04:14.724Z,11.30
2019-05-29T06:06:45.889Z,11.08
2019-05-29T06:09:17.282Z,11.15
2019-05-29T06:11:48.212Z,11.32
2019-05-29T06:14:19.343Z,11.26
2019-05-29T06:16:50.048Z,11.16
2019-05-29T06:19:20.998Z,11.19
2019-05-29T06:21:52.056Z,11.36
2019-05-29T06:24:22.791Z,11.57
2019-05-29T06:26:53.710Z,11.86
2019-05-29T06:29:24.748Z,11.79
2019-05-29T06:31:55.957Z,11.83
2019-05-29T06:34:28.572Z,11.77
2019-05-29T06:36:59.580Z,11.86
2019-05-29T06:39:30.457Z,11.98
2019-05-29T06:42:01.478Z,11.96
2019-05-29T06:44:34.137Z,12.06
2019-05-29T06:47:04.990Z,11.96
2019-05-29T06:49:36.233Z,12.12
2019-05-29T06:52:09.173Z,12.05
2019-05-29T06:54:40.022Z,12.02
2019-05-29T06:57:11.231Z,12.08
2019-05-29T06:59:42.431Z,12.02
2019-05-29T07:02:13.508Z,12.20
2019-05-29T07:04:44.688Z,12.26
2019-05-29T07:07:15.877Z,12.26
2019-05-29T07:09:47.213Z,11.98
2019-05-29T07:12:18.081Z,12.21
2019-05-29T07:14:48.900Z,12.32
2019-05-29T07:17:20.085Z,12.07
2019-05-29T07:20:00.731Z,12.16
2019-05-29T07:22:23.742Z,12.14
2019-05-29T07:24:54.595Z,12.34
2019-05-29T07:27:25.466Z,12.31
2019-05-29T07:29:56.397Z,12.30
2019-05-29T07:32:27.264Z,12.20
2019-05-29T07:35:03.868Z,12.32
2019-05-29T07:37:30.613Z,12.14
2019-05-29T07:40:01.491Z,12.06
2019-05-29T07:42:32.415Z,12.24
2019-05-29T07:45:03.956Z,12.40
2019-05-29T07:47:34.799Z,12.40
2019-05-29T07:50:08.281Z,12.66
2019-05-29T07:52:40.651Z,12.55
2019-05-29T07:55:11.932Z,12.80
2019-05-29T07:57:43.084Z,12.79
2019-05-29T08:00:14.592Z,12.95
2019-05-29T08:02:45.509Z,13.14
2019-05-29T08:05:16.795Z,13.22
2019-05-29T08:07:49.290Z,13.34
2019-05-29T08:10:21.909Z,12.97
2019-05-29T08:12:55.473Z,13.15
2019-05-29T08:15:25.284Z,13.00
2019-05-29T08:17:56.197Z,12.98
2019-05-29T08:20:27.043Z,12.98
2019-05-29T08:22:57.873Z,12.93
2019-05-29T08:25:28.728Z,13.30
2019-05-29T08:27:59.647Z,13.20
2019-05-29T08:30:30.483Z,13.39
2019-05-29T08:33:01.375Z,13.37
2019-05-29T08:35:32.471Z,13.05
2019-05-29T08:38:03.311Z,13.16
2019-05-29T08:40:34.244Z,13.30
2019-05-29T08:43:04.806Z,13.24
2019-05-29T08:45:35.617Z,13.40
2019-05-29T08:48:06.552Z,13.48
2019-05-29T08:50:37.386Z,13.30
2019-05-29T08:53:08.383Z,13.21
2019-05-29T08:55:39.161Z,13.23
2019-05-29T08:58:10.069Z,13.16
2019-05-29T09:00:45.531Z,13.01
2019-05-29T09:03:13.407Z,12.96
2019-05-29T09:05:44.567Z,13.08
2019-05-29T09:08:15.719Z,13.28
2019-05-29T09:10:47.211Z,13.58
2019-05-29T09:13:18.362Z,13.77
2019-05-29T09:15:48.919Z,13.74
2019-05-29T09:18:19.881Z,13.70
2019-05-29T09:21:02.792Z,13.61
2019-05-29T09:23:23.322Z,13.72
2019-05-29T09:25:54.422Z,13.92
2019-05-29T09:28:24.290Z,13.86
2019-05-29T09:30:55.147Z,13.74
2019-05-29T09:33:26.053Z,13.62
2019-05-29T09:35:57.084Z,13.70
2019-05-29T09:38:27.989Z,13.78
2019-05-29T09:40:58.491Z,14.08
2019-05-29T09:43:30.775Z,14.08
2019-05-29T09:46:02.411Z,14.30
2019-05-29T09:48:48.538Z,14.50
2019-05-29T09:51:20.544Z,14.45
2019-05-29T09:53:37.791Z,14.38
2019-05-29T09:56:08.389Z,14.36
2019-05-29T09:58:39.118Z,14.36
2019-05-29T10:01:22.966Z,14.18
2019-05-29T10:03:42.590Z,14.46
2019-05-29T10:06:13.610Z,14.61
2019-05-29T10:08:44.624Z,14.60
2019-05-29T10:11:15.454Z,14.51
2019-05-29T10:13:46.030Z,14.62
2019-05-29T10:16:16.523Z,14.30
2019-05-29T10:18:47.633Z,14.36
2019-05-29T10:21:18.496Z,14.24
2019-05-29T10:23:49.403Z,14.45
2019-05-29T10:26:20.367Z,14.52
2019-05-29T10:29:06.865Z,14.44
2019-05-29T10:31:24.004Z,14.58
2019-05-29T10:33:55.118Z,14.44
2019-05-29T10:36:26.112Z,14.70
2019-05-29T10:38:57.148Z,14.98
2019-05-29T10:41:28.096Z,15.16
2019-05-29T10:43:59.065Z,15.10
2019-05-29T10:46:30.108Z,15.00
2019-05-29T10:49:04.583Z,14.72
2019-05-29T10:51:33.551Z,14.66
2019-05-29T10:54:04.899Z,14.80
2019-05-29T10:56:35.452Z,14.37
2019-05-29T10:59:06.362Z,14.32
2019-05-29T11:01:37.550Z,14.58
2019-05-29T11:04:08.554Z,14.77
2019-05-29T11:06:40.723Z,15.20
2019-05-29T11:09:11.910Z,15.23
2019-05-29T11:11:42.432Z,15.58
2019-05-29T11:14:13.585Z,15.79
2019-05-29T11:16:44.674Z,15.60
2019-05-29T11:19:15.739Z,15.46
2019-05-29T11:21:48.116Z,15.26
2019-05-29T11:24:19.132Z,15.15
2019-05-29T11:26:50.300Z,15.29
2019-05-29T11:29:21.396Z,15.24
2019-05-29T11:31:56.954Z,15.41
2019-05-29T11:34:27.651Z,15.43
2019-05-29T11:36:58.554Z,15.59
2019-05-29T11:39:29.374Z,15.88
2019-05-29T11:42:03.396Z,15.87
2019-05-29T11:44:34.341Z,16.11
2019-05-29T11:47:05.398Z,16.22
2019-05-29T11:49:36.282Z,15.84
2019-05-29T11:52:23.833Z,15.91
2019-05-29T11:54:39.737Z,15.56
2019-05-29T11:57:10.651Z,15.64
2019-05-29T11:59:41.512Z,15.49
2019-05-29T12:02:12.426Z,15.42
2019-05-29T12:04:43.258Z,15.55
2019-05-29T12:07:14.814Z,15.71
2019-05-29T12:09:45.871Z,15.69
2019-05-29T12:12:16.780Z,15.70
2019-05-29T12:15:04.071Z,15.65
2019-05-29T12:17:20.023Z,15.81
2019-05-29T12:19:51.878Z,15.86
2019-05-29T12:22:22.991Z,16.03
2019-05-29T12:24:54.480Z,16.00
2019-05-29T12:27:25.630Z,15.78
2019-05-29T12:30:00.883Z,15.82
2019-05-29T12:32:32.108Z,15.78
2019-05-29T12:35:03.121Z,15.93
2019-05-29T12:37:40.678Z,15.79
2019-05-29T12:40:12.038Z,15.94
2019-05-29T12:42:46.512Z,16.05
2019-05-29T12:45:20.017Z,16.08
2019-05-29T12:47:50.937Z,16.17
2019-05-29T12:50:22.376Z,16.15
2019-05-29T12:52:53.619Z,16.22
2019-05-29T12:55:24.766Z,16.27
2019-05-29T12:57:55.947Z,16.27
2019-05-29T13:00:28.818Z,16.25
2019-05-29T13:03:00.772Z,16.33
2019-05-29T13:05:32.238Z,16.42
2019-05-29T13:08:03.225Z,16.50
2019-05-29T13:10:34.404Z,16.66
2019-05-29T13:13:10.638Z,16.75
2019-05-29T13:15:37.743Z,16.92
2019-05-29T13:18:10.177Z,16.80
2019-05-29T13:20:41.441Z,16.66
2019-05-29T13:23:12.442Z,16.54
2019-05-29T13:25:43.376Z,16.80
2019-05-29T13:28:14.161Z,16.56
2019-05-29T13:30:45.197Z,16.74
2019-05-29T13:33:15.996Z,16.97
2019-05-29T13:35:46.872Z,17.03
2019-05-29T13:38:18.039Z,17.00
2019-05-29T13:40:49.086Z,17.20
2019-05-29T13:43:20.157Z,17.18
2019-05-29T13:45:51.028Z,17.11
2019-05-29T13:48:23.461Z,17.36
2019-05-29T13:50:55.436Z,17.29
2019-05-29T13:53:26.291Z,17.34
2019-05-29T13:55:57.749Z,17.18
2019-05-29T13:58:28.458Z,17.04
2019-05-29T14:01:00.759Z,17.04
2019-05-29T14:03:32.836Z,17.11
2019-05-29T14:06:05.521Z,17.30
2019-05-29T14:08:36.552Z,17.20
2019-05-29T14:11:09.043Z,17.38
2019-05-29T14:13:40.038Z,17.09
2019-05-29T14:16:10.891Z,17.04
2019-05-29T14:18:41.367Z,17.00
2019-05-29T14:21:13.509Z,17.06
2019-05-29T14:23:44.700Z,16.98
2019-05-29T14:26:15.821Z,17.07
2019-05-29T14:28:46.714Z,17.00
2019-05-29T14:31:17.868Z,16.83
2019-05-29T14:33:48.418Z,16.97
2019-05-29T14:36:19.437Z,17.06
2019-05-29T14:38:50.295Z,17.17
2019-05-29T14:41:21.114Z,16.95
2019-05-29T14:43:52.133Z,16.93
2019-05-29T14:46:23.075Z,17.17
2019-05-29T14:48:54.106Z,16.92
2019-05-29T14:51:25.060Z,16.84
2019-05-29T14:53:55.907Z,16.95
2019-05-29T14:56:27.007Z,16.89
2019-05-29T14:58:58.194Z,16.95
2019-05-29T15:01:29.033Z,16.95
2019-05-29T15:04:00.010Z,16.76
2019-05-29T15:06:30.910Z,16.70
2019-05-29T15:09:01.917Z,16.65
2019-05-29T15:11:32.992Z,16.71
2019-05-29T15:14:06.020Z,16.62
2019-05-29T15:16:37.089Z,16.71
2019-05-29T15:19:08.919Z,16.78
2019-05-29T15:21:40.301Z,16.89
2019-05-29T15:24:11.635Z,16.92
2019-05-29T15:26:42.648Z,17.02
2019-05-29T15:29:16.375Z,17.06
2019-05-29T15:31:46.418Z,17.20
2019-05-29T15:34:17.410Z,17.10
2019-05-29T15:36:48.353Z,17.04
2019-05-29T15:39:20.693Z,17.04
2019-05-29T15:41:51.543Z,17.15
2019-05-29T15:44:22.689Z,17.09
2019-05-29T15:46:53.746Z,16.90
2019-05-29T15:49:24.421Z,16.90
2019-05-29T15:51:55.286Z,16.84
2019-05-29T15:54:26.344Z,16.85
2019-05-29T15:56:57.255Z,16.89
2019-05-29T15:59:28.189Z,16.95
2019-05-29T16:01:59.067Z,17.03
2019-05-29T16:04:30.103Z,16.89
2019-05-29T16:07:01.058Z,17.05
2019-05-29T16:09:32.083Z,16.82
2019-05-29T16:12:03.238Z,16.88
2019-05-29T16:14:35.315Z,16.91
2019-05-29T16:17:06.389Z,17.06
2019-05-29T16:19:37.477Z,17.06
2019-05-29T16:22:08.455Z,17.14
2019-05-29T16:24:39.566Z,16.95
2019-05-29T16:27:10.629Z,16.89
2019-05-29T16:29:41.445Z,17.14
2019-05-29T16:32:12.144Z,16.97
2019-05-29T16:34:43.010Z,16.88
2019-05-29T16:37:13.617Z,16.90
2019-05-29T16:39:44.594Z,16.96
2019-05-29T16:42:15.864Z,17.37
2019-05-29T16:44:46.469Z,18.60
2019-05-29T16:47:16.985Z,20.27
2019-05-29T16:49:47.502Z,21.50
2019-05-29T16:52:18.869Z,21.18
2019-05-29T16:54:49.930Z,22.30
2019-05-29T16:57:21.233Z,22.17
2019-05-29T17:00:03.959Z,22.18
2019-05-29T17:02:40.281Z,22.95
2019-05-29T17:05:15.857Z,22.46
2019-05-29T17:07:46.864Z,22.46
2019-05-29T17:10:20.160Z,22.52
2019-05-29T17:12:51.641Z,22.42
2019-05-29T17:15:22.937Z,21.84
2019-05-29T17:17:53.879Z,21.25
2019-05-29T17:20:44.647Z,21.26
2019-05-29T17:23:16.930Z,20.69
2019-05-29T17:25:47.710Z,20.28
2019-05-29T17:28:22.796Z,19.83
2019-05-29T17:30:50.957Z,19.76
2019-05-29T17:33:23.034Z,19.72
2019-05-29T17:35:54.207Z,19.48
2019-05-29T17:38:25.726Z,19.26
2019-05-29T17:40:57.105Z,19.10
2019-05-29T17:43:28.804Z,18.88
2019-05-29T17:45:59.765Z,18.69
2019-05-29T17:48:30.333Z,18.46
2019-05-29T17:51:01.241Z,18.36
2019-05-29T17:53:32.219Z,18.07
2019-05-29T17:56:06.187Z,18.00
2019-05-29T17:58:37.031Z,17.80
2019-05-29T18:01:08.097Z,17.55
2019-05-29T18:03:38.993Z,17.54
2019-05-29T18:06:09.819Z,17.10
2019-05-29T18:08:40.767Z,17.30
2019-05-29T18:11:11.968Z,16.80
2019-05-29T18:13:42.554Z,16.68
2019-05-29T18:16:13.277Z,16.60
2019-05-29T18:18:44.187Z,16.67
2019-05-29T18:21:15.125Z,16.37
2019-05-29T18:23:46.010Z,16.46
2019-05-29T18:26:17.939Z,16.26
2019-05-29T18:28:49.003Z,16.26
2019-05-29T18:31:20.332Z,16.19
2019-05-29T18:33:51.439Z,16.04
2019-05-29T18:36:23.114Z,16.09
2019-05-29T18:38:53.819Z,16.02
2019-05-29T18:41:24.653Z,15.91
2019-05-29T18:43:55.171Z,16.00
2019-05-29T18:46:27.257Z,16.00
2019-05-29T18:48:59.081Z,15.85
2019-05-29T18:51:29.681Z,15.91
2019-05-29T18:54:00.366Z,15.76
2019-05-29T18:56:32.271Z,15.82
2019-05-29T18:59:03.471Z,15.64
2019-05-29T19:01:34.007Z,15.64
2019-05-29T19:04:05.072Z,15.62
2019-05-29T19:06:35.623Z,15.58
2019-05-29T19:09:08.373Z,15.50
2019-05-29T19:11:39.296Z,15.46
2019-05-29T19:14:10.246Z,15.46
2019-05-29T19:16:41.154Z,15.46
2019-05-29T19:19:12.143Z,15.44
2019-05-29T19:21:45.553Z,15.37
2019-05-29T19:24:16.666Z,15.29
2019-05-29T19:26:47.494Z,15.22
2019-05-29T19:29:18.468Z,15.38
2019-05-29T19:31:49.364Z,15.14
2019-05-29T19:34:20.519Z,15.17
2019-05-29T19:36:51.426Z,15.16
2019-05-29T19:39:23.514Z,15.12
2019-05-29T19:41:54.672Z,15.06
2019-05-29T19:44:26.283Z,15.03
2019-05-29T19:46:57.252Z,14.94
2019-05-29T19:49:28.881Z,15.02
2019-05-29T19:51:59.989Z,14.90
2019-05-29T19:54:31.569Z,14.84
2019-05-29T19:57:04.260Z,14.78
2019-05-29T19:59:36.191Z,14.77
2019-05-29T20:02:08.078Z,14.81
2019-05-29T20:04:38.873Z,14.76
2019-05-29T20:07:09.400Z,14.82
2019-05-29T20:09:40.485Z,14.80
2019-05-29T20:12:11.393Z,14.86
2019-05-29T20:14:42.401Z,14.78
2019-05-29T20:17:13.286Z,14.81
2019-05-29T20:19:44.144Z,14.72
2019-05-29T20:22:15.023Z,14.74
2019-05-29T20:24:46.032Z,14.77
2019-05-29T20:27:16.898Z,14.75
2019-05-29T20:29:48.006Z,14.81
2019-05-29T20:32:18.585Z,14.73
2019-05-29T20:34:49.778Z,14.67
2019-05-29T20:37:20.677Z,14.65
2019-05-29T20:39:51.959Z,14.64
2019-05-29T20:42:24.564Z,14.60
2019-05-29T20:44:55.464Z,14.45
2019-05-29T20:47:26.361Z,14.52
2019-05-29T20:49:57.561Z,14.44
2019-05-29T20:52:28.467Z,14.59
2019-05-29T20:54:59.108Z,14.52
2019-05-29T20:57:29.757Z,14.52
2019-05-29T21:00:00.366Z,14.48
2019-05-29T21:02:32.023Z,14.41
2019-05-29T21:05:03.096Z,14.50
2019-05-29T21:07:34.605Z,14.42
2019-05-29T21:10:06.431Z,14.45
2019-05-29T21:12:37.917Z,14.34
2019-05-29T21:15:10.360Z,14.37
2019-05-29T21:17:42.141Z,14.27
2019-05-29T21:20:13.679Z,14.38
2019-05-29T21:22:44.970Z,14.42
2019-05-29T21:25:19.140Z,14.37
2019-05-29T21:27:49.625Z,14.22
2019-05-29T21:30:24.509Z,14.28
2019-05-29T21:32:55.431Z,14.26
2019-05-29T21:35:26.354Z,14.25
2019-05-29T21:37:57.227Z,14.20
2019-05-29T21:40:27.972Z,14.15
2019-05-29T21:42:59.192Z,14.12
2019-05-29T21:45:30.197Z,14.08
2019-05-29T21:48:01.198Z,14.14
2019-05-29T21:50:32.154Z,14.06
2019-05-29T21:53:03.031Z,14.02
2019-05-29T21:55:33.930Z,14.03
2019-05-29T21:58:04.565Z,13.96
2019-05-29T22:00:44.562Z,14.03
2019-05-29T22:03:15.476Z,14.03
2019-05-29T22:05:46.839Z,13.97
2019-05-29T22:08:17.486Z,13.92
2019-05-29T22:10:48.250Z,13.89
2019-05-29T22:13:18.939Z,13.88
2019-05-29T22:15:50.634Z,13.88
2019-05-29T22:18:21.648Z,13.90
2019-05-29T22:20:52.993Z,13.81
2019-05-29T22:23:23.833Z,13.77
2019-05-29T22:25:55.279Z,13.68
2019-05-29T22:28:26.207Z,13.59
2019-05-29T22:30:57.340Z,13.60
2019-05-29T22:33:28.407Z,13.46
2019-05-29T22:35:59.506Z,13.38
2019-05-29T22:38:30.383Z,13.38
2019-05-29T22:41:01.887Z,13.38
2019-05-29T22:43:32.915Z,13.40
2019-05-29T22:46:04.023Z,13.34
2019-05-29T22:48:34.946Z,13.31
2019-05-29T22:51:05.786Z,13.24
2019-05-29T22:53:36.510Z,13.26
2019-05-29T22:56:07.289Z,13.10
2019-05-29T22:58:37.776Z,13.10
2019-05-29T23:01:08.732Z,13.00
2019-05-29T23:03:39.637Z,13.00
2019-05-29T23:06:10.612Z,12.96
2019-05-29T23:08:41.447Z,13.03
2019-05-29T23:11:12.291Z,13.01
2019-05-29T23:13:43.323Z,12.92
2019-05-29T23:16:14.195Z,12.87
2019-05-29T23:18:45.000Z,13.00
2019-05-29T23:21:15.905Z,12.93
2019-05-29T23:23:47.766Z,13.01
2019-05-29T23:26:18.659Z,12.92
2019-05-29T23:28:49.569Z,12.88
2019-05-29T23:31:20.373Z,12.92
2019-05-29T23:33:51.249Z,12.82
2019-05-29T23:36:22.322Z,12.84
2019-05-29T23:38:53.282Z,12.72
2019-05-29T23:41:23.803Z,12.77
2019-05-29T23:43:55.447Z,12.69
2019-05-29T23:46:26.450Z,12.77
2019-05-29T23:48:57.563Z,12.69
2019-05-29T23:51:28.763Z,12.78
2019-05-29T23:53:59.828Z,12.66
2019-05-29T23:56:32.500Z,12.61
2019-05-29T23:59:04.127Z,12.48
